• Join FlightAware (Why Join?)
  • Login
  • US Flag 
04:18PM EDT


 

Airport Tracker/Info


-or-


 

Live Flight TrackerFlight Track Log ✈ N77VZ ✈ 24-Dec-2013 ✈ KAPF - KSVH

Flight Track Log - Related Links

Times and Time Zones

All times are in EST time to prevent confusion due to time zone crossing. See the N77VZ flight status page for this flight to view local times or setup timezone preferences in your user account.

Time Position Orientation Groundspeed Altitude Reporting Facility
EST Latitude Longitude Course Direction KTS MPH feet Rate Location/Type
12:17PM 26.2028 -81.7003 336° Northwest 209 241 3,700  Level Miami Center
12:18PM 26.2483 -81.7114 348° North 215 247 6,300 2,580 Climbing Miami Center
12:19PM 26.2628 -81.7792 283° West 162 186 8,900 2,460 Climbing Miami Center
12:20PM 26.2750 -81.8492 281° West 214 246 11,300 2,340 Climbing Miami Center
12:21PM 26.2914 -81.9169 285° West 233 268 13,600 2,220 Climbing Miami Center
12:22PM 26.3039 -81.9825 282° West 238 274 15,800 2,100 Climbing Miami Center
12:23PM 26.7135 -81.7319 336° Northwest  Level Estimated
12:23PM 26.3222 -82.0503 287° West 238 274 17,800  Level Miami Center
12:24PM 26.3425 -82.1256 287° West 243 280 19,400 1,560 Climbing Miami Center
12:25PM 26.3606 -82.2003 285° West 243 280 21,000 1,500 Climbing Miami Center
12:26PM 26.4194 -82.2494 323° Northwest 243 280 22,500 1,500 Climbing Miami Center
12:27PM 26.4889 -82.2875 334° Northwest 251 289 24,100 1,500 Climbing Miami Center
12:28PM 26.5628 -82.3256 335° Northwest 271 312 25,600 1,440 Climbing Miami Center
12:29PM 26.6342 -82.3683 332° Northwest 281 323 27,000 1,380 Climbing Miami Center
12:30PM 26.7036 -82.4089 332° Northwest 281 323 28,400 1,200 Climbing Miami Center
12:31PM 26.7811 -82.4519 334° Northwest 286 329 29,400 960 Climbing Miami Center
12:32PM 26.8589 -82.4953 334° Northwest 299 344 30,400 960 Climbing Miami Center
12:33PM 26.9386 -82.5386 334° Northwest 309 356 31,400 960 Climbing Miami Center
12:34PM 27.0181 -82.5869 332° Northwest 315 362 32,400 960 Climbing Miami Center
12:35PM 27.0997 -82.6306 335° Northwest 320 368 33,400 1,020 Climbing Miami Center
12:36PM 27.1772 -82.6764 332° Northwest 320 368 34,500 1,020 Climbing Miami Center
12:37PM 27.2631 -82.7228 334° Northwest 320 368 35,500 780 Climbing Miami Center
12:38PM 27.3303 -82.7636 332° Northwest 314 361 36,100 660 Climbing Miami Center
12:39PM 27.4286 -82.8036 340° North 328 377 36,900 600 Climbing Miami Center
12:41PM 27.5658 -82.7967 North 334 384 37,700 540 Climbing Jacksonville Center
12:42PM 27.6658 -82.7847 North 339 390 38,400 660 Climbing Jacksonville Center
12:43PM 27.7639 -82.7731 North 351 404 39,100 600 Climbing Jacksonville Center
12:44PM 27.8578 -82.7636 North 346 398 39,700 420 Climbing Jacksonville Center
12:45PM 27.9558 -82.7539 North 346 398 40,000 120 Climbing Jacksonville Center
12:46PM 28.0558 -82.7397 North 351 404 40,000  Level Jacksonville Center
12:47PM 28.1603 -82.7303 North 357 411 40,000  Level Jacksonville Center
12:48PM 28.2644 -82.7181 North 369 425 40,000  Level Jacksonville Center
12:49PM 28.3689 -82.7086 North 369 425 40,000  Level Jacksonville Center
12:50PM 28.4753 -82.6942 North 374 430 40,000  Level Jacksonville Center
12:51PM 28.5839 -82.6844 North 379 436 40,000  Level Jacksonville Center
12:52PM 28.6964 -82.6678 North 384 442 40,000  Level Jacksonville Center
12:53PM 28.8050 -82.6581 North 379 436 40,000  Level Jacksonville Center
12:54PM 28.9114 -82.6436 North 384 442 40,000  Level Jacksonville Center
12:55PM 29.0200 -82.6314 North 384 442 40,000  Level Jacksonville Center
12:56PM 29.1264 -82.6217 North 384 442 40,000  Level Jacksonville Center
12:57PM 29.2350 -82.6094 North 384 442 40,000  Level Jacksonville Center
12:58PM 29.3331 -82.5972 North 384 442 40,000 60 Level Jacksonville Center
12:59PM 29.4394 -82.5850 North 384 442 40,200 300 Climbing Jacksonville Center
01:00PM 29.5458 -82.5728 North 384 442 40,600 360 Climbing Jacksonville Center
01:01PM 29.6544 -82.5483 11° North 389 448 41,000 180 Climbing Jacksonville Center
01:02PM 29.7586 -82.5217 13° North 389 448 41,000  Level Jacksonville Center
01:03PM 29.8650 -82.4975 11° North 384 442 41,000  Level Jacksonville Center
01:04PM 29.9714 -82.4706 12° North 384 442 41,000  Level Jacksonville Center
01:05PM 30.0883 -82.4461 10° North 389 448 41,000  Level Jacksonville Center
01:06PM 30.1967 -82.4192 12° North 389 448 41,000  Level Jacksonville Center
01:07PM 30.3011 -82.3944 12° North 389 448 41,000  Level Jacksonville Center
01:08PM 30.4094 -82.3675 12° North 389 448 41,000  Level Jacksonville Center
01:09PM 30.5033 -82.3453 12° North 389 448 41,000  Level Jacksonville Center
01:10PM 30.6119 -82.3181 12° North 389 448 41,000  Level Jacksonville Center
01:11PM 30.7181 -82.2908 12° North 389 448 41,000  Level Jacksonville Center
01:12PM 30.8244 -82.2636 12° North 389 448 41,000  Level Jacksonville Center
01:13PM 30.9350 -82.2361 12° North 389 448 41,000  Level Jacksonville Center
01:14PM 31.0414 -82.2089 12° North 389 448 41,000  Level Jacksonville Center
01:15PM 31.1497 -82.1836 11° North 394 453 41,000  Level Jacksonville Center
01:16PM 31.2542 -82.1586 12° North 389 448 41,000  Level Jacksonville Center
01:17PM 31.3606 -82.1333 11° North 389 448 41,000  Level Jacksonville Center
01:18PM 31.4647 -82.1058 13° North 394 453 41,000  Level Jacksonville Center
01:19PM 31.5731 -82.0756 13° North 394 453 41,000  Level Jacksonville Center
01:20PM 31.6878 -82.0453 13° North 394 453 41,000  Level Jacksonville Center
01:21PM 31.7856 -82.0225 11° North 394 453 41,000  Level Jacksonville Center
01:22PM 31.9025 -81.9919 13° North 394 453 41,000  Level Jacksonville Center
01:23PM 32.0108 -81.9639 12° North 394 453 41,000  Level Jacksonville Center
01:24PM 32.1108 -81.9408 11° North 394 453 41,000  Level Jacksonville Center
01:26PM 32.3394 -81.8975 North 403 464 41,000  Level Atlanta Center
01:27PM 32.4381 -81.9172 350° North 368 423 41,000  Level Atlanta Center
01:28PM 32.5406 -81.9347 352° North 368 423 41,000  Level Atlanta Center
01:29PM 32.6389 -81.9544 350° North 368 423 41,000 -360 Level Atlanta Center
01:30PM 32.7417 -81.9742 351° North 368 423 40,300 -900 Descending Atlanta Center
01:31PM 32.8506 -81.9939 351° North 378 435 39,300 -960 Descending Atlanta Center
01:32PM 32.9553 -82.0164 350° North 378 435 38,400 -960 Descending Atlanta Center
01:33PM 33.0578 -82.0361 351° North 378 435 37,400 -1,020 Descending Atlanta Center
01:34PM 33.1603 -82.0536 352° North 373 429 36,400 -960 Descending Atlanta Center
01:35PM 33.2608 -82.0764 349° North 373 429 35,500 -1,080 Descending Atlanta Center
01:36PM 33.3761 -82.0986 351° North 373 429 34,300 -1,140 Descending Atlanta Center
01:37PM 33.4786 -82.1161 352° North 373 429 33,300 -720 Descending Atlanta Center
01:38PM 33.5833 -82.1364 351° North 373 429 32,900 -660 Descending Atlanta Center
01:39PM 33.6881 -82.1539 352° North 373 429 32,000 -960 Descending Atlanta Center
01:40PM 33.8000 -82.1089 18° North 385 443 31,000 -1,080 Descending Atlanta Center
01:41PM 33.9075 -82.0464 26° Northeast 394 453 29,900 -1,200 Descending Atlanta Center
01:42PM 34.0169 -81.9836 25° Northeast 417 480 28,600 -1,380 Descending Atlanta Center
01:43PM 34.1267 -81.9233 24° Northeast 422 486 27,200 -1,380 Descending Atlanta Center
01:44PM 34.2342 -81.8603 26° Northeast 422 486 25,900 -1,380 Descending Atlanta Center
01:45PM 34.3414 -81.7972 26° Northeast 422 486 24,500 -1,500 Descending Atlanta Center
01:46PM 34.4364 -81.7444 25° Northeast 417 480 23,000 -1,620 Descending Atlanta Center
01:47PM 34.5336 -81.6861 26° Northeast 403 464 21,300 -1,740 Descending Atlanta Center
01:48PM 34.6264 -81.6306 26° Northeast 383 441 19,600 -1,920 Descending Atlanta Center
01:48PM 34.6717 -81.6092 21° North 363 418 18,800 -1,740 Descending Atlanta Center
01:49PM 34.7192 -81.5825 25° Northeast 371 427 17,900 -1,500 Descending Atlanta Center
01:49PM 34.7872 -81.5400 27° Northeast 357 411 16,900 -1,440 Descending Atlanta Center
01:50PM 34.8078 -81.5267 28° Northeast 359 413 16,500 -1,560 Descending Atlanta Center
01:51PM 34.9006 -81.4733 25° Northeast 342 394 14,900 -1,500 Descending Atlanta Center
01:51PM 34.8925 -81.4761 196° South 348 400 15,000 -1,440 Climbing Atlanta Center
01:51PM 34.9583 -81.4411 24° Northeast 323 372 13,900 -1,500 Descending Atlanta Center
01:52PM 34.9750 -81.4306 27° Northeast 330 380 13,500 -1,500 Descending Atlanta Center
01:52PM 35.0303 -81.3806 37° Northeast 325 374 12,400 -1,500 Descending Atlanta Center
01:53PM 35.0400 -81.3572 63° Northeast 324 373 12,000 -1,320 Descending Atlanta Center
01:54PM 35.0564 -81.2400 80° East 307 353 10,700 -1,500 Descending Atlanta Center
01:54PM 35.1094 -81.1953 35° Northeast 267 307 9,500 -1,500 Descending Atlanta Center
01:55PM 35.1178 -81.1950 North 273 314 9,200 -1,380 Descending Atlanta Center
01:55PM 35.1783 -81.1953 360° North 232 267 8,100 -1,200 Descending Atlanta Center
01:56PM 35.1889 -81.1975 350° North 232 267 8,000 -480 Descending Atlanta Center
01:57PM 35.2578 -81.2003 358° North 237 273 7,500 -600 Descending Atlanta Center
01:57PM 35.2703 -81.2022 353° North 257 296 7,400 -1,260 Descending Atlanta Center
01:58PM 35.3367 -81.1872 10° North 263 303 6,300 -1,080 Descending Atlanta Center
01:58PM 35.3283 -81.1900 195° South 244 281 6,400 -1,020 Climbing Atlanta Center
01:59PM 35.3922 -81.1547 24° Northeast 264 304 5,400 -780 Descending Atlanta Center
02:00PM 35.4561 -81.1219 23° Northeast 250 288 5,000 -420 Descending Atlanta Center
02:02PM 35.6186 -81.0324 22° Northeast  Level FlightAware Approximate